DEEMH LFTZ-LEGE
Flight info
| Callsign | DEEMH |
|---|---|
| Flight time | 0h 28m |
| Altitude | 5000 |
| Route | DCT |
| Aircraft | B58T/L-SDFGRY/C |
Departure
| Time | 2026-04-20 17:18 |
|---|---|
| Airport | La Môle Airport (LFTZ) |
Arrival
| Time | 2026-04-20 17:46 |
|---|---|
| Airport | Girona-Costa Brava Airport (LEGE) |
| Time | Latitude | Longitude | Altitude | Speed | Heading |
|---|---|---|---|---|---|
| 2026-04-20 17:07 | 43.20391 | 6.47632 | 60 ft | 0 kts | 166° |
| 2026-04-20 17:15 | 43.20390 | 6.47632 | 60 ft | 1 kts | 166° |
| 2026-04-20 17:15 | 43.20383 | 6.47628 | 57 ft | 5 kts | 223° |
| 2026-04-20 17:15 | 43.20345 | 6.47547 | 60 ft | 12 kts | 237° |
| 2026-04-20 17:15 | 43.20333 | 6.47524 | 55 ft | 0 kts | 225° |
| 2026-04-20 17:16 | 43.20331 | 6.47521 | 61 ft | 2 kts | 223° |
| 2026-04-20 17:17 | 43.20294 | 6.47524 | 61 ft | 7 kts | 123° |
| 2026-04-20 17:17 | 43.20295 | 6.47553 | 61 ft | 0 kts | 62° |
| 2026-04-20 17:17 | 43.20446 | 6.47940 | 66 ft | 95 kts | 61° |
| 2026-04-20 17:17 | 43.20799 | 6.48863 | 452 ft | 117 kts | 64° |
| 2026-04-20 17:18 | 43.21146 | 6.49913 | 1026 ft | 128 kts | 63° |
| 2026-04-20 17:18 | 43.21517 | 6.51064 | 1648 ft | 134 kts | 64° |
| 2026-04-20 17:18 | 43.21894 | 6.52296 | 2150 ft | 145 kts | 75° |
| 2026-04-20 17:18 | 43.21738 | 6.53638 | 2653 ft | 151 kts | 126° |
| 2026-04-20 17:19 | 43.20960 | 6.54678 | 3001 ft | 162 kts | 142° |
| 2026-04-20 17:19 | 43.20092 | 6.55667 | 3497 ft | 158 kts | 152° |
| 2026-04-20 17:19 | 43.19091 | 6.56081 | 4041 ft | 147 kts | 186° |
| 2026-04-20 17:19 | 43.18119 | 6.55753 | 4491 ft | 143 kts | 213° |
| 2026-04-20 17:20 | 43.17256 | 6.54959 | 4759 ft | 156 kts | 220° |
| 2026-04-20 17:20 | 43.16329 | 6.54014 | 4818 ft | 174 kts | 221° |
| 2026-04-20 17:20 | 43.15362 | 6.52974 | 4921 ft | 182 kts | 222° |
| 2026-04-20 17:20 | 43.14325 | 6.51848 | 4750 ft | 199 kts | 221° |
| 2026-04-20 17:21 | 43.13205 | 6.50685 | 4645 ft | 202 kts | 220° |
| 2026-04-20 17:21 | 43.12088 | 6.49538 | 4624 ft | 199 kts | 220° |
| 2026-04-20 17:21 | 43.10992 | 6.48420 | 4674 ft | 195 kts | 220° |
| 2026-04-20 17:21 | 43.09909 | 6.47317 | 4734 ft | 193 kts | 220° |
| 2026-04-20 17:22 | 43.08838 | 6.46229 | 4792 ft | 192 kts | 220° |
| 2026-04-20 17:22 | 43.07762 | 6.45150 | 4863 ft | 191 kts | 220° |
| 2026-04-20 17:22 | 43.06686 | 6.44067 | 4883 ft | 194 kts | 220° |
| 2026-04-20 17:22 | 43.05594 | 6.42970 | 4883 ft | 195 kts | 220° |
| 2026-04-20 17:23 | 43.04497 | 6.41867 | 4882 ft | 195 kts | 220° |
| 2026-04-20 17:23 | 43.03397 | 6.40771 | 4883 ft | 195 kts | 220° |
| 2026-04-20 17:23 | 43.02295 | 6.39682 | 4884 ft | 196 kts | 220° |
| 2026-04-20 17:23 | 43.01194 | 6.38586 | 4884 ft | 196 kts | 220° |
| 2026-04-20 17:24 | 43.00093 | 6.37490 | 4888 ft | 197 kts | 220° |
| 2026-04-20 17:24 | 42.98986 | 6.36385 | 4884 ft | 197 kts | 220° |
| 2026-04-20 17:24 | 42.97881 | 6.35280 | 4885 ft | 196 kts | 220° |
| 2026-04-20 17:24 | 42.96778 | 6.34181 | 4883 ft | 196 kts | 220° |
| 2026-04-20 17:25 | 42.95675 | 6.33083 | 4884 ft | 196 kts | 220° |
| 2026-04-20 17:25 | 42.94570 | 6.31985 | 4883 ft | 196 kts | 220° |
| 2026-04-20 17:25 | 42.93468 | 6.30886 | 4882 ft | 196 kts | 220° |
| 2026-04-20 17:25 | 42.92366 | 6.29785 | 4883 ft | 196 kts | 219° |
| 2026-04-20 17:26 | 42.91147 | 6.28919 | 4886 ft | 198 kts | 211° |
| 2026-04-20 17:26 | 42.90197 | 6.27661 | 4883 ft | 190 kts | 243° |
| 2026-04-20 17:26 | 42.89620 | 6.26053 | 4886 ft | 189 kts | 248° |
| 2026-04-20 17:26 | 42.89070 | 6.24424 | 4887 ft | 189 kts | 248° |
| 2026-04-20 17:27 | 42.88524 | 6.22793 | 4895 ft | 189 kts | 248° |
| 2026-04-20 17:27 | 42.87978 | 6.21162 | 4899 ft | 189 kts | 248° |
| 2026-04-20 17:27 | 42.87428 | 6.19530 | 4898 ft | 189 kts | 248° |
| 2026-04-20 17:27 | 42.86882 | 6.17896 | 4897 ft | 189 kts | 248° |
| 2026-04-20 17:28 | 42.86335 | 6.16270 | 4897 ft | 189 kts | 248° |
| 2026-04-20 17:28 | 42.85786 | 6.14640 | 4904 ft | 189 kts | 248° |
| 2026-04-20 17:28 | 42.85239 | 6.13009 | 4895 ft | 189 kts | 248° |
| 2026-04-20 17:28 | 42.84690 | 6.11381 | 4899 ft | 189 kts | 248° |
| 2026-04-20 17:29 | 42.84147 | 6.09773 | 4896 ft | 189 kts | 248° |
| 2026-04-20 17:29 | 42.83597 | 6.08146 | 4907 ft | 189 kts | 248° |
| 2026-04-20 17:29 | 42.83044 | 6.06516 | 4908 ft | 190 kts | 248° |
| 2026-04-20 17:29 | 42.82487 | 6.04878 | 4909 ft | 190 kts | 248° |
| 2026-04-20 17:30 | 42.81960 | 6.03224 | 4907 ft | 190 kts | 252° |
| 2026-04-20 17:30 | 42.81524 | 6.01525 | 4907 ft | 190 kts | 256° |
| 2026-04-20 17:30 | 42.81200 | 5.99785 | 4907 ft | 190 kts | 259° |
| 2026-04-20 17:30 | 42.80895 | 5.98042 | 4908 ft | 189 kts | 259° |
| 2026-04-20 17:31 | 42.80689 | 5.96862 | 4907 ft | 190 kts | 259° |
| 2026-04-20 17:31 | 42.80391 | 5.95135 | 4906 ft | 190 kts | 259° |
| 2026-04-20 17:31 | 42.80088 | 5.93388 | 4912 ft | 189 kts | 259° |
| 2026-04-20 17:31 | 42.79788 | 5.91642 | 4914 ft | 189 kts | 259° |
| 2026-04-20 17:32 | 42.79487 | 5.89901 | 4912 ft | 189 kts | 259° |
| 2026-04-20 17:32 | 42.79190 | 5.88160 | 4912 ft | 188 kts | 259° |
| 2026-04-20 17:32 | 42.78896 | 5.86418 | 4911 ft | 189 kts | 259° |
| 2026-04-20 17:32 | 42.78600 | 5.84676 | 4911 ft | 189 kts | 259° |
| 2026-04-20 17:33 | 42.77972 | 5.81019 | 4911 ft | 189 kts | 259° |
| 2026-04-20 17:33 | 42.73126 | 5.53097 | 4918 ft | 191 kts | 259° |
| 2026-04-20 17:33 | 42.68225 | 5.24905 | 4926 ft | 193 kts | 259° |
| 2026-04-20 17:33 | 42.63363 | 4.96545 | 4935 ft | 193 kts | 259° |
| 2026-04-20 17:34 | 42.58557 | 4.68007 | 4943 ft | 194 kts | 259° |
| 2026-04-20 17:34 | 42.53722 | 4.39356 | 4945 ft | 193 kts | 258° |
| 2026-04-20 17:34 | 42.46859 | 4.11595 | 4940 ft | 196 kts | 244° |
| 2026-04-20 17:34 | 42.35691 | 3.86361 | 4940 ft | 196 kts | 238° |
| 2026-04-20 17:35 | 42.23987 | 3.61713 | 4937 ft | 194 kts | 237° |
| 2026-04-20 17:35 | 42.12491 | 3.37018 | 4942 ft | 197 kts | 237° |
| 2026-04-20 17:35 | 42.07285 | 3.25618 | 4943 ft | 197 kts | 237° |
| 2026-04-20 17:35 | 42.06567 | 3.24049 | 4945 ft | 197 kts | 237° |
| 2026-04-20 17:36 | 42.05849 | 3.22477 | 4947 ft | 197 kts | 238° |
| 2026-04-20 17:36 | 42.05131 | 3.20907 | 4947 ft | 197 kts | 238° |
| 2026-04-20 17:36 | 42.04617 | 3.19206 | 4939 ft | 198 kts | 254° |
| 2026-04-20 17:36 | 42.04311 | 3.17394 | 4887 ft | 200 kts | 256° |
| 2026-04-20 17:37 | 42.04015 | 3.15543 | 4771 ft | 204 kts | 256° |
| 2026-04-20 17:37 | 42.03713 | 3.13664 | 4651 ft | 206 kts | 256° |
| 2026-04-20 17:37 | 42.03407 | 3.11770 | 4530 ft | 208 kts | 256° |
| 2026-04-20 17:37 | 42.03096 | 3.09869 | 4401 ft | 208 kts | 256° |
| 2026-04-20 17:38 | 42.02788 | 3.07959 | 4278 ft | 210 kts | 257° |
| 2026-04-20 17:38 | 42.02481 | 3.06054 | 4153 ft | 207 kts | 257° |
| 2026-04-20 17:38 | 42.02175 | 3.04182 | 4027 ft | 203 kts | 257° |
| 2026-04-20 17:38 | 42.01973 | 3.02324 | 3896 ft | 200 kts | 267° |
| 2026-04-20 17:39 | 42.01964 | 3.00462 | 3775 ft | 198 kts | 269° |
| 2026-04-20 17:39 | 42.01975 | 2.98618 | 3652 ft | 197 kts | 269° |
| 2026-04-20 17:39 | 42.01986 | 2.96781 | 3527 ft | 196 kts | 269° |
| 2026-04-20 17:39 | 42.01996 | 2.94956 | 3405 ft | 195 kts | 270° |
| 2026-04-20 17:40 | 42.02003 | 2.93130 | 3277 ft | 195 kts | 269° |
| 2026-04-20 17:40 | 42.02011 | 2.91309 | 3154 ft | 194 kts | 269° |
| 2026-04-20 17:40 | 42.02017 | 2.89492 | 3032 ft | 194 kts | 269° |
| 2026-04-20 17:40 | 42.02025 | 2.87731 | 2900 ft | 178 kts | 269° |
| 2026-04-20 17:41 | 42.02036 | 2.86164 | 2756 ft | 158 kts | 269° |
| 2026-04-20 17:41 | 42.02054 | 2.84754 | 2609 ft | 143 kts | 270° |
| 2026-04-20 17:41 | 42.02053 | 2.83473 | 2451 ft | 132 kts | 264° |
| 2026-04-20 17:41 | 42.01876 | 2.82278 | 2198 ft | 125 kts | 252° |
| 2026-04-20 17:42 | 42.01542 | 2.81271 | 2088 ft | 118 kts | 238° |
| 2026-04-20 17:42 | 42.01096 | 2.80357 | 2077 ft | 119 kts | 224° |
| 2026-04-20 17:42 | 42.00315 | 2.79990 | 2048 ft | 120 kts | 193° |
| 2026-04-20 17:42 | 41.99531 | 2.79677 | 2006 ft | 117 kts | 199° |
| 2026-04-20 17:43 | 41.98755 | 2.79345 | 1924 ft | 118 kts | 198° |
| 2026-04-20 17:43 | 41.97956 | 2.79051 | 1821 ft | 120 kts | 195° |
| 2026-04-20 17:43 | 41.97145 | 2.78784 | 1709 ft | 120 kts | 198° |
| 2026-04-20 17:43 | 41.96338 | 2.78466 | 1568 ft | 122 kts | 195° |
| 2026-04-20 17:44 | 41.95522 | 2.78187 | 1416 ft | 120 kts | 198° |
| 2026-04-20 17:44 | 41.94725 | 2.77885 | 1217 ft | 119 kts | 197° |
| 2026-04-20 17:44 | 41.93944 | 2.77547 | 1089 ft | 117 kts | 199° |
| 2026-04-20 17:44 | 41.93189 | 2.77230 | 944 ft | 108 kts | 197° |
| 2026-04-20 17:45 | 41.92498 | 2.76975 | 769 ft | 101 kts | 196° |
| 2026-04-20 17:45 | 41.91835 | 2.76716 | 599 ft | 97 kts | 197° |
| 2026-04-20 17:45 | 41.91237 | 2.76491 | 421 ft | 78 kts | 197° |
| 2026-04-20 17:45 | 41.90803 | 2.76322 | 416 ft | 52 kts | 195° |
| 2026-04-20 17:46 | 41.90540 | 2.76225 | 420 ft | 37 kts | 197° |
| 2026-04-20 17:46 | 41.90277 | 2.76125 | 424 ft | 41 kts | 196° |
| 2026-04-20 17:46 | 41.90102 | 2.76089 | 422 ft | 18 kts | 151° |
| 2026-04-20 17:46 | 41.90062 | 2.76217 | 419 ft | 0 kts | 105° |
| 2026-04-20 17:47 | 41.90058 | 2.76234 | 420 ft | 7 kts | 106° |
| 2026-04-20 17:47 | 41.90035 | 2.76337 | 424 ft | 10 kts | 108° |
| 2026-04-20 17:48 | 41.90009 | 2.76460 | 422 ft | 16 kts | 107° |
| 2026-04-20 17:48 | 41.90006 | 2.76533 | 421 ft | 0 kts | 15° |